aviador You're here:

LZKZ Decoded Metar

KOSICE in SLOVAKIA
Report Time2017-09-24 22:30:00
UTC Time2017-09-24 23:03:33
Flight Rules vfr VFR
Wind230° at 02 kt
W.Decomp.*RWY 19: 1.6 kt HW 1.1 kt RCW
W.Rank230° ranks 10
Current wind is below 230° avg. (6.9)
Visibility9999 m
Phenomena:N/A
Clouds:Few 013 Hf
Expected CloudBase > 400 ft AGL from Temp-Dew spread
CeilingNone
Temp11°C (ISA -2)
Dew Point10°C (94% RH)
AAT10.3°C
QNH1021 hPa
Density Alt361 ft
Elevation761 ft
Report Wrong Elevation
Raw Report
LZKZ 242230Z 23002KT 9999 FEW013 11/10 Q1021=

Extra information for LZKZ:More info

Metar Taf Metar & Taf Last 4 Metars F.Rules Stats Wind Profile Meteogram Temp Stats Airport Information Weather charts Add Link Nearby VenuesMetar ALERT Operation Metar Decoded Social comments